M I D A S
Marine Information and Data Acquisition System
Tripno 1234 of the Zeeleeuw from 2007-03-19 08:20:02 to 2007-03-19 11:45:25
Back to CruiseResearch ActivitiesStationsMapUnderway DataData graphs

EquipmentUnitsComment
TimeDGPSUTC
LatitudeDGPSDM.mWGS84
LongitudeDGPSDM.mWGS84
HeadingGyrodeg 
SOGDGPSknotsSpeed over ground
COGDGPSdegCourse over ground
DepthEcho soundermeters200 kHz
Missing or incorrect values are displayed as -999
Navigation data collected by the RV Zeeleeuw from 2007-03-19 08:19:51 to 2007-03-19 12:56:07
                                                                                    Next 1000 lines
Time Latitude Longitude Heading SOG COG Depth
2007-03-19 08:20:01 51°13.598 2°56.094 117.8 0.6 277 6.4
2007-03-19 08:20:06 51°13.598 2°56.091 117.5 1.1 287 6.6
2007-03-19 08:20:11 51°13.599 2°56.088 117.5 1.6 290 6.8
2007-03-19 08:20:16 51°13.6 2°56.084 118.2 2.1 291 7.4
2007-03-19 08:20:21 51°13.601 2°56.079 118.9 2.3 293 7.4
2007-03-19 08:20:26 51°13.602 2°56.074 119.2 2.7 292 -999
2007-03-19 08:20:31 51°13.604 2°56.068 119.3 3.1 295 -999
2007-03-19 08:20:36 51°13.606 2°56.061 119.4 3.4 294 -999
2007-03-19 08:20:41 51°13.608 2°56.054 119.7 3.6 295 -999
2007-03-19 08:20:46 51°13.61 2°56.046 120.4 3.9 295 -999
2007-03-19 08:20:52 51°13.614 2°56.037 121.4 4.1 298 -999
2007-03-19 08:20:56 51°13.616 2°56.03 122.5 4.2 298 -999
2007-03-19 08:21:01 51°13.619 2°56.022 123.6 4.3 300 -999
2007-03-19 08:21:06 51°13.622 2°56.014 125 4.2 302 -999
2007-03-19 08:21:11 51°13.625 2°56.007 126.2 4 304 -999
2007-03-19 08:21:17 51°13.628 2°55.999 127.2 3.6 304 -999
2007-03-19 08:21:21 51°13.63 2°55.994 127.7 3.1 306 -999
2007-03-19 08:21:26 51°13.632 2°55.989 127.7 2.8 303 -999
2007-03-19 08:21:31 51°13.635 2°55.985 127 2.7 309 -999
2007-03-19 08:21:36 51°13.638 2°55.98 127 2.8 303 4.6
2007-03-19 08:21:41 51°13.64 2°55.974 127 3 309 -999
2007-03-19 08:21:46 51°13.643 2°55.969 126.4 3.1 305 4.5
2007-03-19 08:21:51 51°13.645 2°55.963 125.5 3.3 305 4.8
2007-03-19 08:21:56 51°13.648 2°55.956 124.6 3.6 303 4.6
2007-03-19 08:22:01 51°13.65 2°55.949 123.2 3.9 301 -999
2007-03-19 08:22:06 51°13.653 2°55.941 122 4.1 301 -999
2007-03-19 08:22:11 51°13.656 2°55.933 121.6 4.2 298 -999
2007-03-19 08:22:16 51°13.659 2°55.924 121.7 4.3 300 -999
2007-03-19 08:22:21 51°13.662 2°55.916 122 4.5 298 -999
2007-03-19 08:22:26 51°13.666 2°55.907 122.3 4.8 298 -999
2007-03-19 08:22:31 51°13.67 2°55.897 122.6 5 299 -999
2007-03-19 08:22:36 51°13.673 2°55.888 123.4 5.1 300 -999
2007-03-19 08:22:41 51°13.677 2°55.878 124.4 5.1 301 -999
2007-03-19 08:22:47 51°13.681 2°55.866 125.4 5.2 302 -999
2007-03-19 08:22:51 51°13.684 2°55.858 126.4 5.3 303 -999
2007-03-19 08:22:56 51°13.688 2°55.848 127 5.4 304 -999
2007-03-19 08:23:01 51°13.692 2°55.838 127.2 5.3 304 -999
2007-03-19 08:23:06 51°13.696 2°55.829 127.1 5.2 304 -999
2007-03-19 08:23:11 51°13.7 2°55.819 126.4 5.1 303 -999
2007-03-19 08:23:16 51°13.703 2°55.809 125.4 5 302 -999
2007-03-19 08:23:21 51°13.707 2°55.8 124.1 4.9 301 -999
2007-03-19 08:23:26 51°13.71 2°55.791 122.8 4.9 299 -999
2007-03-19 08:23:31 51°13.713 2°55.781 121.4 4.8 298 -999
2007-03-19 08:23:37 51°13.716 2°55.771 119.9 4.5 295 -999
2007-03-19 08:23:41 51°13.718 2°55.764 118.2 4.3 294 -999
2007-03-19 08:23:46 51°13.72 2°55.755 116.5 4.2 291 -999
2007-03-19 08:23:51 51°13.722 2°55.746 114.9 4.1 290 -999
2007-03-19 08:23:56 51°13.724 2°55.738 113.5 3.9 289 -999
2007-03-19 08:24:01 51°13.726 2°55.731 112.5 3.7 288 -999
2007-03-19 08:24:06 51°13.727 2°55.724 112.1 3.3 289 -999
2007-03-19 08:24:11 51°13.728 2°55.718 111.7 2.6 285 -999
2007-03-19 08:24:16 51°13.729 2°55.713 110.5 1.9 284 -999
2007-03-19 08:24:21 51°13.729 2°55.712 108.5 0.7 285 -999
2007-03-19 08:24:26 51°13.73 2°55.712 105.9 0.1 19 4.6
2007-03-19 08:24:31 51°13.73 2°55.714 102.7 1.1 90 -999
2007-03-19 08:24:36 51°13.73 2°55.717 96.9 1.7 86 -999
2007-03-19 08:24:41 51°13.73 2°55.721 88.1 1.8 79 4.7
2007-03-19 08:24:46 51°13.731 2°55.725 82 1.5 78 -999
2007-03-19 08:24:51 51°13.731 2°55.727 79.4 1.2 80 4.7
2007-03-19 08:24:56 51°13.731 2°55.729 77.5 0.6 92 4.6
2007-03-19 08:25:01 51°13.731 2°55.729 74.7 0.2 132 4.7
2007-03-19 08:25:06 51°13.731 2°55.729 71.9 0.5 224 5
2007-03-19 08:25:11 51°13.73 2°55.727 70 1.2 237 -999
2007-03-19 08:25:16 51°13.729 2°55.724 69.5 1.6 240 -999
2007-03-19 08:25:21 51°13.728 2°55.721 69.5 1.6 243 4.6
2007-03-19 08:25:26 51°13.727 2°55.718 69.8 1.5 242 -999
2007-03-19 08:25:32 51°13.726 2°55.715 70.8 1.2 248 -999
2007-03-19 08:25:36 51°13.725 2°55.713 71.6 0.8 241 -999
2007-03-19 08:25:41 51°13.725 2°55.713 71.1 0.3 258 -999
2007-03-19 08:25:46 51°13.725 2°55.713 69.1 0.3 43 -999
2007-03-19 08:25:51 51°13.726 2°55.714 65.8 0.8 49 -999
2007-03-19 08:25:56 51°13.727 2°55.717 61 1.3 51 -999
2007-03-19 08:26:01 51°13.729 2°55.72 55.5 1.8 48 -999
2007-03-19 08:26:06 51°13.731 2°55.723 49.3 1.9 44 -999
2007-03-19 08:26:11 51°13.733 2°55.725 43.9 1.7 40 -999
2007-03-19 08:26:16 51°13.734 2°55.727 40.8 1.5 41 -999
2007-03-19 08:26:21 51°13.735 2°55.729 38.5 0.9 42 -999
2007-03-19 08:26:26 51°13.735 2°55.729 35.7 0.3 53 -999
2007-03-19 08:26:31 51°13.735 2°55.729 33.6 0.3 198 -999
2007-03-19 08:26:36 51°13.734 2°55.729 32.1 0.7 204 -999
2007-03-19 08:26:41 51°13.732 2°55.727 31.4 1.3 206 -999
2007-03-19 08:26:46 51°13.73 2°55.726 31 1.5 208 4.8
2007-03-19 08:26:51 51°13.728 2°55.724 30.8 1.7 206 -999
2007-03-19 08:26:56 51°13.726 2°55.722 30.7 1.6 209 -999
2007-03-19 08:27:01 51°13.725 2°55.721 30.6 1.5 207 -999
2007-03-19 08:27:06 51°13.723 2°55.719 30.5 1.4 208 -999
2007-03-19 08:27:11 51°13.721 2°55.718 30.4 1 210 -999
2007-03-19 08:27:16 51°13.721 2°55.718 29.8 0.6 201 -999
2007-03-19 08:27:21 51°13.72 2°55.717 28 0.2 209 -999
2007-03-19 08:27:26 51°13.721 2°55.718 25.3 0.2 22 -999
2007-03-19 08:27:32 51°13.722 2°55.718 22.1 0.6 17 -999
2007-03-19 08:27:36 51°13.722 2°55.719 18.5 1 17 -999
2007-03-19 08:27:41 51°13.724 2°55.719 14.6 1.3 11 -999
2007-03-19 08:27:46 51°13.726 2°55.719 10.4 1.5 6 -999
2007-03-19 08:27:51 51°13.729 2°55.72 5.9 1.9 2 -999
2007-03-19 08:27:56 51°13.731 2°55.719 1 2 355 -999
2007-03-19 08:28:01 51°13.734 2°55.719 355.9 2.1 351 -999
2007-03-19 08:28:06 51°13.737 2°55.717 350.7 2.2 344 -999
2007-03-19 08:28:11 51°13.74 2°55.716 345.6 2.2 341 -999
2007-03-19 08:28:16 51°13.743 2°55.713 341.5 2.5 332 4.6
2007-03-19 08:28:21 51°13.746 2°55.71 336.8 2.7 329 -999
2007-03-19 08:28:26 51°13.749 2°55.706 333 2.9 323 4.5
2007-03-19 08:28:31 51°13.753 2°55.702 329.5 3.3 324 -999
2007-03-19 08:28:36 51°13.757 2°55.697 327.5 3.6 322 -999
2007-03-19 08:28:41 51°13.762 2°55.692 327.8 3.9 323 11.4
2007-03-19 08:28:46 51°13.766 2°55.686 329.5 4.3 326 -999
2007-03-19 08:28:51 51°13.772 2°55.681 330.8 4.7 326 -999
2007-03-19 08:28:56 51°13.777 2°55.675 332 4.9 328 -999
2007-03-19 08:29:01 51°13.783 2°55.668 332.8 5.3 329 10.8
2007-03-19 08:29:06 51°13.79 2°55.662 333.8 5.6 330 -999
2007-03-19 08:29:11 51°13.797 2°55.656 334.9 5.9 331 -999
2007-03-19 08:29:16 51°13.805 2°55.649 335.7 6.2 332 11.2
2007-03-19 08:29:21 51°13.812 2°55.643 336.7 6.4 333 -999
2007-03-19 08:29:26 51°13.821 2°55.637 337.7 6.7 335 11.2
2007-03-19 08:29:31 51°13.83 2°55.63 338.5 7 335 11.2
2007-03-19 08:29:36 51°13.839 2°55.623 338.9 7.4 335 11.3
2007-03-19 08:29:41 51°13.849 2°55.617 339.2 7.6 336 -999
2007-03-19 08:29:46 51°13.858 2°55.61 339.9 7.8 336 10.9
2007-03-19 08:29:51 51°13.869 2°55.603 340.5 8.1 336 -999
2007-03-19 08:29:56 51°13.879 2°55.596 340.4 8.3 336 11
2007-03-19 08:30:01 51°13.89 2°55.588 340.2 8.4 337 10.7
2007-03-19 08:30:06 51°13.901 2°55.581 340.4 8.5 336 10.9
2007-03-19 08:30:11 51°13.912 2°55.572 340.3 8.7 334 10.7
2007-03-19 08:30:16 51°13.923 2°55.564 339.3 8.8 336 10.9
2007-03-19 08:30:21 51°13.934 2°55.556 339.6 8.9 336 10.7
2007-03-19 08:30:26 51°13.946 2°55.549 340.5 9 337 10.7
2007-03-19 08:30:31 51°13.957 2°55.541 341.4 9 338 10.7
2007-03-19 08:30:36 51°13.969 2°55.533 341.5 9.2 337 10.8
2007-03-19 08:30:41 51°13.98 2°55.526 340.8 9.2 338 10.8
2007-03-19 08:30:46 51°13.992 2°55.518 341.1 9.2 338 10.7
2007-03-19 08:30:51 51°14.004 2°55.51 341.6 9.3 337 10.8
2007-03-19 08:30:56 51°14.016 2°55.502 341.1 9.3 337 10.7
2007-03-19 08:31:01 51°14.028 2°55.494 341.2 9.3 338 10.9
2007-03-19 08:31:06 51°14.04 2°55.486 341.7 9.3 337 10.8
2007-03-19 08:31:11 51°14.051 2°55.478 341.3 9.3 336 -999
2007-03-19 08:31:16 51°14.063 2°55.47 340.6 9.3 336 10.8
2007-03-19 08:31:21 51°14.075 2°55.461 340.6 9.2 336 10.8
2007-03-19 08:31:26 51°14.086 2°55.453 340.8 9.2 336 10.8
2007-03-19 08:31:31 51°14.098 2°55.445 340.3 9.2 336 10.8
2007-03-19 08:31:36 51°14.109 2°55.436 339.8 9.1 335 10.8
2007-03-19 08:31:41 51°14.121 2°55.428 339.6 9 335 10.8
2007-03-19 08:31:46 51°14.132 2°55.419 339.1 9 333 10.8
2007-03-19 08:31:51 51°14.143 2°55.41 338.2 8.9 333 10.8
2007-03-19 08:31:56 51°14.154 2°55.4 337.2 8.9 330 10.8
2007-03-19 08:32:01 51°14.164 2°55.39 334.6 8.8 328 -999
2007-03-19 08:32:06 51°14.175 2°55.38 332.7 8.8 327 -999
2007-03-19 08:32:11 51°14.184 2°55.368 330.8 8.8 325 10.8
2007-03-19 08:32:16 51°14.194 2°55.357 329.5 8.8 324 -999
2007-03-19 08:32:21 51°14.204 2°55.346 328.1 8.7 323 -999
2007-03-19 08:32:26 51°14.214 2°55.334 327.3 8.7 322 -999
2007-03-19 08:32:31 51°14.223 2°55.322 325.9 8.7 321 -999
2007-03-19 08:32:36 51°14.232 2°55.309 325 8.8 320 -999
2007-03-19 08:32:41 51°14.242 2°55.297 323.7 8.9 319 -999
2007-03-19 08:32:46 51°14.251 2°55.283 322 8.9 316 -999
2007-03-19 08:32:51 51°14.26 2°55.269 319.9 9 315 -999
2007-03-19 08:32:56 51°14.268 2°55.255 318.7 9 314 -999
2007-03-19 08:33:01 51°14.277 2°55.24 317.8 9.1 313 10.8
2007-03-19 08:33:06 51°14.285 2°55.225 316.4 9.1 311 -999
2007-03-19 08:33:11 51°14.293 2°55.209 315.3 9.2 311 -999
2007-03-19 08:33:16 51°14.302 2°55.193 314.2 9.4 309 11.4
2007-03-19 08:33:21 51°14.31 2°55.177 313.6 9.6 309 11.1
2007-03-19 08:33:26 51°14.319 2°55.161 313.2 9.7 309 10.7
2007-03-19 08:33:31 51°14.327 2°55.144 313.2 9.8 310 10.4
2007-03-19 08:33:36 51°14.336 2°55.127 313.3 9.9 310 10.4
2007-03-19 08:33:41 51°14.345 2°55.11 313.5 10 309 10.3
2007-03-19 08:33:46 51°14.354 2°55.092 312.7 10.2 308 10.4
2007-03-19 08:33:51 51°14.362 2°55.074 312 10.2 309 10.3
2007-03-19 08:33:56 51°14.371 2°55.056 312 10.4 308 10.8
2007-03-19 08:34:01 51°14.38 2°55.038 312 10.3 308 10.5
2007-03-19 08:34:06 51°14.388 2°55.02 312 10.4 306 10.6
2007-03-19 08:34:11 51°14.396 2°55.001 311.5 10.2 304 10.4
2007-03-19 08:34:16 51°14.404 2°54.982 310.9 10.3 304 10.3
2007-03-19 08:34:21 51°14.412 2°54.963 309.9 10.5 302 10.3
2007-03-19 08:34:26 51°14.42 2°54.944 309.5 10.4 303 10.7
2007-03-19 08:34:31 51°14.428 2°54.924 309.5 10.5 303 10.5
2007-03-19 08:34:36 51°14.436 2°54.904 310 10.6 301 10.8
2007-03-19 08:34:41 51°14.443 2°54.884 310 10.6 299 10.6
2007-03-19 08:34:46 51°14.449 2°54.862 308.5 10.8 296 10.7
2007-03-19 08:34:51 51°14.455 2°54.84 306.3 10.7 291 10.3
2007-03-19 08:34:56 51°14.458 2°54.817 302.4 10.8 282 11.1
2007-03-19 08:35:01 51°14.46 2°54.794 295.1 10.8 278 10.3
2007-03-19 08:35:06 51°14.46 2°54.77 287.8 10.7 269 10.6
2007-03-19 08:35:11 51°14.459 2°54.746 280.9 10.8 264 10.2
2007-03-19 08:35:16 51°14.456 2°54.723 272.9 10.9 261 10.2
2007-03-19 08:35:21 51°14.454 2°54.699 268.5 11.1 259 10.5
2007-03-19 08:35:26 51°14.45 2°54.674 266 11.2 257 10.6
2007-03-19 08:35:31 51°14.447 2°54.65 264.9 11.2 258 10.8
2007-03-19 08:35:36 51°14.442 2°54.626 263.8 11.2 255 10.8
2007-03-19 08:35:41 51°14.439 2°54.602 263 11.5 255 10.8
2007-03-19 08:35:46 51°14.435 2°54.577 262.5 11.7 253 10.6
2007-03-19 08:35:51 51°14.43 2°54.552 259.9 11.9 252 10.5
2007-03-19 08:35:56 51°14.423 2°54.527 256.9 12 249 10.5
2007-03-19 08:36:01 51°14.417 2°54.502 255 12.1 250 10.8
2007-03-19 08:36:06 51°14.41 2°54.477 253.5 12.4 247 10
2007-03-19 08:36:11 51°14.403 2°54.452 252.7 12.3 245 9.3
2007-03-19 08:36:16 51°14.396 2°54.428 250.6 12.3 244 9
2007-03-19 08:36:21 51°14.387 2°54.404 248.2 12.5 241 9
2007-03-19 08:36:26 51°14.378 2°54.38 245.7 12.6 239 9
2007-03-19 08:36:31 51°14.37 2°54.356 244.4 12.6 240 9.2
2007-03-19 08:36:36 51°14.361 2°54.332 243.9 12.7 241 9.2
2007-03-19 08:36:41 51°14.351 2°54.308 243.8 12.8 238 9.2
2007-03-19 08:36:46 51°14.343 2°54.282 243.5 12.8 242 9.4
2007-03-19 08:36:51 51°14.334 2°54.259 244.6 12.8 238 9.1
2007-03-19 08:36:56 51°14.325 2°54.234 243.8 12.7 241 9
2007-03-19 08:37:01 51°14.316 2°54.21 243.9 12.7 240 9
2007-03-19 08:37:06 51°14.308 2°54.185 244.5 12.9 242 9
2007-03-19 08:37:11 51°14.298 2°54.161 244.6 12.9 238 8.8
2007-03-19 08:37:16 51°14.29 2°54.135 244.3 12.9 242 8.8
2007-03-19 08:37:21 51°14.281 2°54.111 245.3 12.8 240 8.9
2007-03-19 08:37:26 51°14.273 2°54.086 244.7 12.8 241 8.9
2007-03-19 08:37:31 51°14.264 2°54.061 244.8 13 241 9
2007-03-19 08:37:36 51°14.255 2°54.036 244.9 13 240 9
2007-03-19 08:37:41 51°14.247 2°54.011 245.3 13 243 9.1
2007-03-19 08:37:46 51°14.237 2°53.987 245.5 12.9 240 9
2007-03-19 08:37:51 51°14.229 2°53.961 245.7 13 241 9
2007-03-19 08:37:56 51°14.22 2°53.936 245.7 13.1 242 9.1
2007-03-19 08:38:01 51°14.211 2°53.911 245.5 13 239 9
2007-03-19 08:38:06 51°14.203 2°53.886 244.7 13 242 9
2007-03-19 08:38:11 51°14.194 2°53.861 245.8 13 240 8.9
2007-03-19 08:38:16 51°14.185 2°53.835 245.6 13.1 242 8.9
2007-03-19 08:38:21 51°14.176 2°53.811 244.8 13.1 239 8.7
2007-03-19 08:38:26 51°14.167 2°53.785 244.8 13.2 240 8.8
2007-03-19 08:38:31 51°14.158 2°53.76 244.1 13.1 239 8.9
2007-03-19 08:38:36 51°14.148 2°53.736 244.5 13.1 239 9.2
2007-03-19 08:38:41 51°14.139 2°53.711 244.1 13.1 240 8.9
2007-03-19 08:38:46 51°14.129 2°53.686 244.3 13.2 237 9
2007-03-19 08:38:52 51°14.118 2°53.656 244 13.1 240 9
2007-03-19 08:38:55 51°14.113 2°53.641 244.7 13.2 239 9.2
2007-03-19 08:39:02 51°14.1 2°53.606 244.5 13.3 240 9.1
2007-03-19 08:39:07 51°14.091 2°53.58 244.5 13.3 241 9.1
2007-03-19 08:39:11 51°14.084 2°53.56 245.3 13.1 240 9.1
2007-03-19 08:39:17 51°14.072 2°53.53 245.3 13.2 239 9
2007-03-19 08:39:22 51°14.064 2°53.505 244.8 13.1 241 9.1
2007-03-19 08:39:26 51°14.056 2°53.486 245.4 13 238 8.9
2007-03-19 08:39:31 51°14.047 2°53.46 245.2 13.2 240 9.1
2007-03-19 08:39:36 51°14.038 2°53.434 245.3 13.1 242 9.1
2007-03-19 08:39:42 51°14.027 2°53.405 246.5 13 239 9.4
2007-03-19 08:39:46 51°14.019 2°53.384 245.1 13.2 241 9.4
2007-03-19 08:39:51 51°14.01 2°53.36 245.2 13.2 238 9.4
2007-03-19 08:39:56 51°14.001 2°53.334 244.6 13.2 240 9.3
2007-03-19 08:40:02 51°13.99 2°53.304 245 13.2 238 9.3
2007-03-19 08:40:07 51°13.981 2°53.278 245.3 13.2 242 9.6
2007-03-19 08:40:11 51°13.974 2°53.259 246.1 13.2 238 9.4
2007-03-19 08:40:16 51°13.965 2°53.234 245.1 13.1 241 9.4
2007-03-19 08:40:22 51°13.954 2°53.204 245.3 13.2 239 9.7
2007-03-19 08:40:27 51°13.944 2°53.179 245 13.2 238 9.5
2007-03-19 08:40:32 51°13.936 2°53.154 244.6 12.9 241 9.6
2007-03-19 08:40:36 51°13.928 2°53.135 245.5 13.1 239 9.6
2007-03-19 08:40:42 51°13.916 2°53.105 243.4 13.3 238 9.3
2007-03-19 08:40:46 51°13.909 2°53.085 244.1 13 240 9.4
2007-03-19 08:40:51 51°13.901 2°53.06 245.5 13 241 9.8
2007-03-19 08:40:56 51°13.891 2°53.035 245.1 13.2 240 9.5
2007-03-19 08:41:02 51°13.88 2°53.004 244.8 13.2 240 9.5
2007-03-19 08:41:06 51°13.873 2°52.984 245.7 13.2 240 9.6
2007-03-19 08:41:12 51°13.862 2°52.954 245.5 13.1 240 9.7
2007-03-19 08:41:16 51°13.854 2°52.934 245.5 13.1 241 9.8
2007-03-19 08:41:22 51°13.843 2°52.904 245.5 13.2 239 9.8
2007-03-19 08:41:26 51°13.836 2°52.884 244.5 13.2 240 10.1
2007-03-19 08:41:32 51°13.824 2°52.853 245.2 13.5 238 9.8
2007-03-19 08:41:37 51°13.816 2°52.827 245.3 13.2 242 9.9
2007-03-19 08:41:42 51°13.806 2°52.803 246.6 13.2 237 9.9
2007-03-19 08:41:46 51°13.8 2°52.782 244.7 13.2 244 9.9
2007-03-19 08:41:51 51°13.79 2°52.757 246 13.3 236 9.8
2007-03-19 08:41:57 51°13.78 2°52.725 245.3 13.2 243 9.9
2007-03-19 08:42:02 51°13.77 2°52.701 246.2 13.2 238 9.9
2007-03-19 08:42:07 51°13.761 2°52.675 245.5 13.3 240 9.8
2007-03-19 08:42:11 51°13.753 2°52.656 244.3 13.3 239 9.7
2007-03-19 08:42:16 51°13.744 2°52.63 244.8 13.3 241 9.6
2007-03-19 08:42:22 51°13.734 2°52.599 245.3 13.3 241 9.6
2007-03-19 08:42:27 51°13.724 2°52.575 245.5 13.1 239 9.6
2007-03-19 08:42:32 51°13.715 2°52.55 245.1 13.1 240 9.9
2007-03-19 08:42:36 51°13.707 2°52.529 245.5 13.3 240 9.7
2007-03-19 08:42:42 51°13.696 2°52.499 245 13.2 241 9.9
2007-03-19 08:42:47 51°13.687 2°52.474 246.2 13.1 240 10
2007-03-19 08:42:51 51°13.68 2°52.453 245.1 13.2 239 9.9
2007-03-19 08:42:56 51°13.671 2°52.428 245.2 13.3 241 10.1
2007-03-19 08:43:02 51°13.659 2°52.398 245.8 13.3 239 10.2
2007-03-19 08:43:07 51°13.651 2°52.372 245.8 13.3 241 10.2
2007-03-19 08:43:12 51°13.641 2°52.347 245 13.2 240 10.2
2007-03-19 08:43:16 51°13.634 2°52.326 245.5 13.2 241 10.2
2007-03-19 08:43:22 51°13.623 2°52.296 245.5 13.2 239 10.2
2007-03-19 08:43:26 51°13.616 2°52.276 245.3 13.1 240 10.1
2007-03-19 08:43:32 51°13.604 2°52.247 245.8 13 237 10.1
2007-03-19 08:43:37 51°13.594 2°52.223 244.9 13 238 10.1
2007-03-19 08:43:42 51°13.585 2°52.198 243.9 13 240 10
2007-03-19 08:43:46 51°13.578 2°52.178 244.9 13.1 241 10.1
2007-03-19 08:43:52 51°13.567 2°52.148 245.6 13.1 239 10.1
2007-03-19 08:43:57 51°13.558 2°52.122 245.4 13.1 242 10.4
2007-03-19 08:44:02 51°13.549 2°52.098 245.8 13.2 238 10.1
2007-03-19 08:44:06 51°13.542 2°52.078 244.4 12.9 242 10.2
2007-03-19 08:44:11 51°13.533 2°52.053 246.8 13 238 10.1
2007-03-19 08:44:16 51°13.523 2°52.028 246 13.2 240 10
2007-03-19 08:44:22 51°13.512 2°51.998 245.3 13.1 240 10
2007-03-19 08:44:27 51°13.503 2°51.973 245.9 13.2 240 10
2007-03-19 08:44:31 51°13.496 2°51.953 245.3 13.2 241 10.1
2007-03-19 08:44:36 51°13.487 2°51.928 245.9 13.1 239 10.1
2007-03-19 08:44:42 51°13.476 2°51.897 245.2 13.1 240 10.4
2007-03-19 08:44:47 51°13.466 2°51.872 245.8 13.2 239 10.4
2007-03-19 08:44:51 51°13.458 2°51.852 244.8 13.3 240 10.2
2007-03-19 08:44:56 51°13.45 2°51.827 244.8 13.1 240 10.3
2007-03-19 08:45:02 51°13.439 2°51.797 245.8 13.2 240 10.4
2007-03-19 08:45:07 51°13.43 2°51.771 245.2 13.3 241 10.4
2007-03-19 08:45:11 51°13.421 2°51.751 245.7 13.4 238 10.3
2007-03-19 08:45:16 51°13.413 2°51.725 245.1 13 242 10.4
2007-03-19 08:45:22 51°13.401 2°51.696 246 13.1 238 10.4
2007-03-19 08:45:27 51°13.393 2°51.671 244.5 13.1 241 10.3
2007-03-19 08:45:32 51°13.383 2°51.646 244.8 13.1 238 10.4
2007-03-19 08:45:36 51°13.376 2°51.626 245.9 13 241 10.5
2007-03-19 08:45:42 51°13.364 2°51.597 245.2 13.2 237 10.4
2007-03-19 08:45:46 51°13.358 2°51.576 244.6 13.1 241 10.4
2007-03-19 08:45:52 51°13.346 2°51.547 245.1 13.2 238 10.5
2007-03-19 08:45:57 51°13.337 2°51.522 245.2 13 240 10.5
2007-03-19 08:46:02 51°13.328 2°51.497 245.2 13 239 10.6
2007-03-19 08:46:06 51°13.321 2°51.477 244.5 13.2 241 10.5
2007-03-19 08:46:11 51°13.311 2°51.452 245.6 13.3 239 10.5
2007-03-19 08:46:17 51°13.3 2°51.422 245.5 13.1 240 10.1
2007-03-19 08:46:22 51°13.291 2°51.397 245.5 13 238 10.2
2007-03-19 08:46:27 51°13.282 2°51.371 245.4 13.1 242 10.3
2007-03-19 08:46:31 51°13.274 2°51.352 246.1 13.2 238 10.3
2007-03-19 08:46:37 51°13.263 2°51.321 245.2 13.1 239 10
2007-03-19 08:46:42 51°13.254 2°51.297 244.1 13.1 239 10.2
2007-03-19 08:46:47 51°13.245 2°51.272 244.7 13.2 239 10.2
2007-03-19 08:46:51 51°13.237 2°51.252 245 13 239 10.2
2007-03-19 08:46:56 51°13.228 2°51.227 244.6 13 241 10.4
2007-03-19 08:47:02 51°13.217 2°51.197 245.5 13.1 239 10.4
2007-03-19 08:47:07 51°13.208 2°51.172 245 13.1 240 10.3
2007-03-19 08:47:11 51°13.201 2°51.153 245.2 13 239 10.5
2007-03-19 08:47:16 51°13.192 2°51.127 245.2 13.1 240 10.6
2007-03-19 08:47:22 51°13.181 2°51.097 244.5 12.9 241 10.6
2007-03-19 08:47:27 51°13.17 2°51.074 246 13.2 234 10.6
2007-03-19 08:47:32 51°13.163 2°51.048 243.2 13.1 242 10.5
2007-03-19 08:47:36 51°13.155 2°51.029 245.3 13.1 237 10.4
2007-03-19 08:47:42 51°13.144 2°50.998 244.4 13.1 241 10.5
2007-03-19 08:47:46 51°13.137 2°50.979 245.4 12.9 240 10.4
2007-03-19 08:47:52 51°13.126 2°50.949 245.7 13.1 240 10.5
2007-03-19 08:47:57 51°13.117 2°50.924 245.7 12.8 241 10.6
2007-03-19 08:48:02 51°13.107 2°50.9 246.1 13 236 10.7
2007-03-19 08:48:06 51°13.101 2°50.879 245 12.9 242 10.6
2007-03-19 08:48:12 51°13.089 2°50.85 245.6 12.9 238 10.5
2007-03-19 08:48:17 51°13.081 2°50.825 245.2 12.7 242 10.6
2007-03-19 08:48:22 51°13.071 2°50.801 245.8 13.1 237 10.7
2007-03-19 08:48:27 51°13.063 2°50.775 244.5 12.9 243 10.4
2007-03-19 08:48:31 51°13.056 2°50.756 246.1 12.9 240 10.4
2007-03-19 08:48:36 51°13.047 2°50.731 246 13 241 10.5
2007-03-19 08:48:42 51°13.036 2°50.701 245.5 13 241 10.5
2007-03-19 08:48:47 51°13.027 2°50.677 245.9 13.1 238 10.5
2007-03-19 08:48:51 51°13.02 2°50.656 244.6 13 243 10.6
2007-03-19 08:48:57 51°13.009 2°50.627 245.9 13 237 10.6
2007-03-19 08:49:02 51°13 2°50.602 244.8 12.9 242 10.6
2007-03-19 08:49:07 51°12.991 2°50.577 245.5 13.1 238 10.6
2007-03-19 08:49:11 51°12.983 2°50.558 245.2 13 238 10.3
2007-03-19 08:49:16 51°12.974 2°50.533 244.5 13 240 10.5
2007-03-19 08:49:22 51°12.963 2°50.503 244.8 13 240 10.4
2007-03-19 08:49:27 51°12.954 2°50.479 245.3 12.8 240 10.5
2007-03-19 08:49:31 51°12.947 2°50.459 244.2 12.9 238 10.6
2007-03-19 08:49:36 51°12.937 2°50.435 244.5 12.8 240 10.7
2007-03-19 08:49:41 51°12.928 2°50.411 245.2 12.8 237 10.3
2007-03-19 08:49:47 51°12.917 2°50.381 243.1 13 241 10.1
2007-03-19 08:49:52 51°12.909 2°50.357 244.4 12.8 240 10.1
2007-03-19 08:49:56 51°12.901 2°50.337 245.8 12.9 240 10.5
2007-03-19 08:50:02 51°12.891 2°50.307 246 13 241 10.6
2007-03-19 08:50:06 51°12.884 2°50.287 246.2 12.9 240 10.8
2007-03-19 08:50:12 51°12.873 2°50.258 245.7 13 241 10.8
2007-03-19 08:50:17 51°12.864 2°50.233 245.3 12.9 239 10.9
2007-03-19 08:50:22 51°12.855 2°50.209 245 13 239 10.8
2007-03-19 08:50:26 51°12.848 2°50.189 245.4 12.7 242 11
2007-03-19 08:50:32 51°12.836 2°50.16 245.8 12.9 237 10.8
2007-03-19 08:50:36 51°12.83 2°50.139 244.2 12.9 243 10.8
2007-03-19 08:50:42 51°12.819 2°50.11 246.2 12.7 240 10.8
2007-03-19 08:50:47 51°12.81 2°50.085 245.7 13 239 10.8
2007-03-19 08:50:51 51°12.804 2°50.065 244.8 12.9 243 10.8
2007-03-19 08:50:57 51°12.793 2°50.036 246.7 12.8 239 10.8
2007-03-19 08:51:02 51°12.784 2°50.011 245.3 13 240 10.7
2007-03-19 08:51:07 51°12.776 2°49.986 245.8 13 242 10.8
2007-03-19 08:51:11 51°12.768 2°49.966 246.1 12.9 241 10.7
2007-03-19 08:51:16 51°12.76 2°49.941 246.4 12.9 241 10.8
2007-03-19 08:51:22 51°12.749 2°49.911 245.8 12.8 241 10.8
2007-03-19 08:51:27 51°12.74 2°49.886 245.8 13.1 240 10.9
2007-03-19 08:51:31 51°12.733 2°49.866 245.3 13 241 10.5
2007-03-19 08:51:36 51°12.724 2°49.842 245.9 12.5 239 10.7
2007-03-19 08:51:42 51°12.714 2°49.813 245.6 12.7 240 10.8
2007-03-19 08:51:47 51°12.705 2°49.788 244.5 12.9 240 10.5
2007-03-19 08:51:52 51°12.696 2°49.764 245.3 12.8 241 10.5
2007-03-19 08:51:56 51°12.689 2°49.744 245.6 13 239 10.7
2007-03-19 08:52:02 51°12.679 2°49.714 244.8 12.8 242 10.8
2007-03-19 08:52:07 51°12.67 2°49.69 246.1 12.8 240 10.8
2007-03-19 08:52:12 51°12.661 2°49.665 245.3 12.9 242 10.9
2007-03-19 08:52:17 51°12.653 2°49.64 245.4 12.7 240 10.9
2007-03-19 08:52:22 51°12.644 2°49.616 245.9 12.7 240 11.1
2007-03-19 08:52:27 51°12.635 2°49.591 244.5 13 240 10.8
2007-03-19 08:52:32 51°12.626 2°49.566 245.3 12.9 242 10.8
2007-03-19 08:52:36 51°12.619 2°49.546 245.8 12.8 240 10.8
2007-03-19 08:52:42 51°12.609 2°49.517 245.2 12.9 240 10.8
2007-03-19 08:52:47 51°12.6 2°49.492 245.2 12.7 242 10.9
2007-03-19 08:52:51 51°12.592 2°49.473 245.7 13 238 10.9
2007-03-19 08:52:57 51°12.583 2°49.442 243.8 13.1 243 10.9
2007-03-19 08:53:02 51°12.573 2°49.417 245.6 12.9 240 10.7
2007-03-19 08:53:07 51°12.564 2°49.393 245.5 12.8 240 10.8
2007-03-19 08:53:11 51°12.557 2°49.373 244.9 13 240 10.8
2007-03-19 08:53:17 51°12.546 2°49.343 245.6 12.7 240 10.8
2007-03-19 08:53:22 51°12.537 2°49.319 245.3 12.9 238 10.8
2007-03-19 08:53:26 51°12.53 2°49.299 243.2 12.8 241 10.3
2007-03-19 08:53:31 51°12.521 2°49.275 245.2 12.7 241 10.7
2007-03-19 08:53:36 51°12.512 2°49.251 244.9 12.8 239 10.7
2007-03-19 08:53:42 51°12.502 2°49.221 244.3 12.7 241 10.9
2007-03-19 08:53:47 51°12.492 2°49.197 245.6 12.9 237 11
2007-03-19 08:53:51 51°12.486 2°49.178 243.5 12.8 242 10.8
2007-03-19 08:53:56 51°12.477 2°49.154 244.8 12.6 238 10.6
2007-03-19 08:54:02 51°12.466 2°49.125 243.9 12.9 240 10.6
2007-03-19 08:54:07 51°12.457 2°49.1 244.5 12.9 240 10.5
2007-03-19 08:54:12 51°12.449 2°49.076 245.5 12.7 241 10.6
2007-03-19 08:54:16 51°12.442 2°49.056 245.8 12.5 240 10.9
2007-03-19 08:54:22 51°12.431 2°49.026 245.8 12.8 241 11.1
2007-03-19 08:54:27 51°12.423 2°49.002 245.6 12.7 243 11
2007-03-19 08:54:32 51°12.415 2°48.978 247.5 12.7 240 10.9
2007-03-19 08:54:36 51°12.409 2°48.957 246 12.9 244 10.9
2007-03-19 08:54:42 51°12.399 2°48.927 247 12.8 243 10.8
2007-03-19 08:54:46 51°12.392 2°48.907 248.5 12.8 242 11
2007-03-19 08:54:52 51°12.383 2°48.876 247.1 12.8 243 11.2
2007-03-19 08:54:56 51°12.376 2°48.857 247.6 12.9 241 11
2007-03-19 08:55:02 51°12.366 2°48.826 247.2 12.9 244 11.2
2007-03-19 08:55:07 51°12.357 2°48.801 247.9 12.9 240 11
2007-03-19 08:55:11 51°12.351 2°48.78 246.6 13 243 11.2
2007-03-19 08:55:17 51°12.341 2°48.75 247.5 12.9 244 11
2007-03-19 08:55:22 51°12.333 2°48.725 247.6 12.8 242 11.1
2007-03-19 08:55:26 51°12.326 2°48.705 247.1 13 242 10.7
2007-03-19 08:55:31 51°12.318 2°48.679 246.6 12.9 245 10.9
2007-03-19 08:55:36 51°12.31 2°48.654 248.1 12.8 241 10.9
2007-03-19 08:55:42 51°12.3 2°48.624 246.8 12.9 244 11.1
2007-03-19 08:55:47 51°12.292 2°48.599 248.4 12.8 241 11
2007-03-19 08:55:51 51°12.285 2°48.579 247.5 12.9 241 10.7
2007-03-19 08:55:56 51°12.277 2°48.554 246.2 12.9 243 10.7
2007-03-19 08:56:02 51°12.267 2°48.524 247.1 13 241 10.8
2007-03-19 08:56:07 51°12.259 2°48.498 246.5 12.9 244 11
2007-03-19 08:56:12 51°12.25 2°48.473 247.9 12.8 241 11.3
2007-03-19 08:56:16 51°12.244 2°48.453 247.1 12.9 243 11.2
2007-03-19 08:56:22 51°12.234 2°48.423 246.9 12.9 242 11.4
2007-03-19 08:56:27 51°12.226 2°48.397 247.5 13.1 244 11.1
2007-03-19 08:56:32 51°12.219 2°48.371 249 12.6 248 11.3
2007-03-19 08:56:36 51°12.213 2°48.35 251.1 13 245 11.3
2007-03-19 08:56:42 51°12.205 2°48.319 250.9 12.8 247 11.1
2007-03-19 08:56:46 51°12.199 2°48.298 252.5 12.9 247 11.5
2007-03-19 08:56:52 51°12.191 2°48.267 252.2 12.9 246 11.1
2007-03-19 08:56:56 51°12.186 2°48.246 252.4 12.7 249 11.1
2007-03-19 08:57:02 51°12.177 2°48.214 253.2 13 246 11.1
2007-03-19 08:57:07 51°12.171 2°48.188 252.9 12.9 249 11.2
2007-03-19 08:57:11 51°12.165 2°48.167 254.3 12.8 248 11.3
2007-03-19 08:57:17 51°12.157 2°48.135 254 12.9 248 11.4
2007-03-19 08:57:22 51°12.151 2°48.108 253.3 13 248 11.4
2007-03-19 08:57:26 51°12.145 2°48.087 253.9 12.9 249 11.3
2007-03-19 08:57:31 51°12.138 2°48.061 253.9 13 247 11.3
2007-03-19 08:57:37 51°12.132 2°48.029 253 12.7 252 11.4
2007-03-19 08:57:42 51°12.125 2°48.002 255.2 12.9 249 11.6
2007-03-19 08:57:47 51°12.121 2°47.975 256.3 12.8 255 11.6
2007-03-19 08:57:51 51°12.117 2°47.953 259.1 12.7 253 11.4
2007-03-19 08:57:56 51°12.112 2°47.926 260.3 12.8 256 11.7
2007-03-19 08:58:02 51°12.106 2°47.893 261 12.8 253 11.5
2007-03-19 08:58:07 51°12.102 2°47.866 261.1 12.8 256 11.8
2007-03-19 08:58:12 51°12.097 2°47.84 262.1 12.6 253 11.6
2007-03-19 08:58:16 51°12.093 2°47.818 261.7 12.4 254 11.7
2007-03-19 08:58:22 51°12.087 2°47.786 261.3 12.6 254 11.7
2007-03-19 08:58:27 51°12.083 2°47.76 260.9 12.3 256 11.6
2007-03-19 08:58:32 51°12.078 2°47.734 261.7 12.4 253 12
2007-03-19 08:58:36 51°12.074 2°47.712 261.2 12.6 255 11.9
2007-03-19 08:58:42 51°12.068 2°47.681 261 12.6 255 11.8
2007-03-19 08:58:47 51°12.063 2°47.654 261.6 12.6 256 12
2007-03-19 08:58:51 51°12.059 2°47.632 262 12.8 254 12.1
2007-03-19 08:58:56 51°12.055 2°47.605 261.8 12.6 257 12.1
2007-03-19 08:59:02 51°12.05 2°47.573 262.1 12.6 254 12.1
2007-03-19 08:59:06 51°12.047 2°47.551 262.1 12.7 256 12.1
2007-03-19 08:59:12 51°12.041 2°47.518 262.2 12.8 255 12.2
2007-03-19 08:59:16 51°12.039 2°47.496 262.7 12.6 258 12.1
2007-03-19 08:59:22 51°12.033 2°47.464 263.4 12.8 252 12.2
2007-03-19 08:59:26 51°12.03 2°47.442 261.6 12.8 258 12.3
2007-03-19 08:59:32 51°12.024 2°47.409 263.1 12.7 253 12.4
2007-03-19 08:59:37 51°12.02 2°47.382 262 12.8 255 12.4
2007-03-19 08:59:42 51°12.015 2°47.356 261 12.4 255 12.1
2007-03-19 08:59:46 51°12.011 2°47.335 262 12.5 254 12.4
2007-03-19 08:59:51 51°12.008 2°47.308 261.6 12.5 255 12.5
2007-03-19 08:59:57 51°12.002 2°47.276 262.5 12.5 257 12.5
2007-03-19 09:00:02 51°11.997 2°47.249 262.3 12.7 253 12.4
2007-03-19 09:00:07 51°11.993 2°47.222 262 12.4 257 12.5
2007-03-19 09:00:11 51°11.989 2°47.201 262.6 12.6 253 12.7
2007-03-19 09:00:17 51°11.984 2°47.168 261.5 12.7 256 12.6
2007-03-19 09:00:22 51°11.98 2°47.142 261.7 12.5 255 12.5
2007-03-19 09:00:27 51°11.975 2°47.115 262.4 12.5 255 12.6
2007-03-19 09:00:32 51°11.971 2°47.088 261.9 12.5 255 12.7
2007-03-19 09:00:36 51°11.967 2°47.067 262.4 12.5 255 12.7
2007-03-19 09:00:42 51°11.962 2°47.036 262 12.4 254 12.4
2007-03-19 09:00:47 51°11.957 2°47.009 261.3 12.5 256 12.6
2007-03-19 09:00:51 51°11.954 2°46.987 261.8 12.5 256 12.7
2007-03-19 09:00:56 51°11.949 2°46.96 262.3 12.6 254 12.8
2007-03-19 09:01:02 51°11.944 2°46.928 262 12.5 256 13
2007-03-19 09:01:07 51°11.94 2°46.901 262.4 12.8 255 12.9
2007-03-19 09:01:12 51°11.936 2°46.874 261.2 12.6 256 12.7
2007-03-19 09:01:16 51°11.931 2°46.853 262.3 12.6 253 12.9
2007-03-19 09:01:22 51°11.925 2°46.821 261.4 12.6 255 12.8
2007-03-19 09:01:27 51°11.921 2°46.794 261 12.6 254 12.6
2007-03-19 09:01:32 51°11.916 2°46.767 261 12.5 255 12.8
2007-03-19 09:01:37 51°11.912 2°46.741 261.2 12.4 254 12.8
2007-03-19 09:01:42 51°11.907 2°46.714 261.1 12.6 254 12.9
2007-03-19 09:01:46 51°11.904 2°46.693 261.4 12.6 256 12.9
2007-03-19 09:01:52 51°11.898 2°46.661 262 12.6 254 13
2007-03-19 09:01:57 51°11.894 2°46.634 261.6 12.6 256 13
2007-03-19 09:02:02 51°11.889 2°46.607 261.5 12.7 255 13
2007-03-19 09:02:07 51°11.885 2°46.579 261.4 12.8 255 12.9
2007-03-19 09:02:11 51°11.881 2°46.558 261.3 12.7 256 13
2007-03-19 09:02:17 51°11.875 2°46.525 262.5 12.7 254 12.9
2007-03-19 09:02:22 51°11.871 2°46.498 261.1 12.7 256 13
2007-03-19 09:02:27 51°11.866 2°46.47 261.6 12.9 253 13
2007-03-19 09:02:31 51°11.863 2°46.449 261.3 12.9 255 12.9
2007-03-19 09:02:37 51°11.858 2°46.416 261.3 12.7 256 13
2007-03-19 09:02:42 51°11.853 2°46.389 261.5 12.7 255 12.9
2007-03-19 09:02:47 51°11.849 2°46.361 261.4 12.8 256 13
2007-03-19 09:02:51 51°11.845 2°46.34 261.9 12.7 254 12.9
2007-03-19 09:02:56 51°11.841 2°46.313 261.4 12.6 256 13
2007-03-19 09:03:01 51°11.836 2°46.286 261.8 12.8 256 13.1
2007-03-19 09:03:07 51°11.831 2°46.253 261.6 12.7 256 12.9
2007-03-19 09:03:11 51°11.828 2°46.232 262.1 12.6 255 13
2007-03-19 09:03:16 51°11.823 2°46.205 261.8 12.7 255 13
2007-03-19 09:03:22 51°11.818 2°46.172 261.6 12.6 257 13
2007-03-19 09:03:27 51°11.814 2°46.145 262.4 12.8 256 13.1
2007-03-19 09:03:32 51°11.81 2°46.117 263 12.6 257 13.1
2007-03-19 09:03:36 51°11.807 2°46.096 263.5 12.6 256 13.2
2007-03-19 09:03:42 51°11.802 2°46.062 263.5 12.9 257 13.1
2007-03-19 09:03:47 51°11.8 2°46.035 263.3 12.8 261 13
2007-03-19 09:03:52 51°11.795 2°46.008 264.9 12.7 256 12.9
2007-03-19 09:03:57 51°11.792 2°45.98 264.2 12.7 260 13
2007-03-19 09:04:02 51°11.788 2°45.953 265 12.7 257 13
2007-03-19 09:04:06 51°11.786 2°45.93 264.5 12.7 259 13.1
2007-03-19 09:04:12 51°11.781 2°45.898 264.4 12.7 256 13.1
2007-03-19 09:04:17 51°11.777 2°45.871 265.3 12.6 255 13.1
2007-03-19 09:04:22 51°11.773 2°45.844 263.3 12.4 259 12.9
2007-03-19 09:04:26 51°11.77 2°45.823 263.4 12.5 256 12.9
2007-03-19 09:04:31 51°11.767 2°45.796 263.7 12.6 260 13.1
2007-03-19 09:04:37 51°11.763 2°45.764 264.5 12.4 257 13.1
2007-03-19 09:04:42 51°11.76 2°45.736 265 12.4 260 13.1
2007-03-19 09:04:47 51°11.756 2°45.71 264.9 12.5 257 13.3
2007-03-19 09:04:51 51°11.753 2°45.688 264.9 12.3 260 13.2
2007-03-19 09:04:56 51°11.749 2°45.662 265.2 12.4 256 13.3
2007-03-19 09:05:02 51°11.745 2°45.629 264.4 12.4 259 13.2
2007-03-19 09:05:07 51°11.742 2°45.603 264.8 12.3 259 13.2
2007-03-19 09:05:12 51°11.737 2°45.576 264.8 12.3 257 13.3
2007-03-19 09:05:16 51°11.735 2°45.555 264.5 12.4 258 13.4
2007-03-19 09:05:22 51°11.73 2°45.523 264.1 12.4 258 13.3
2007-03-19 09:05:27 51°11.727 2°45.496 264.4 12.3 258 12.9
2007-03-19 09:05:32 51°11.723 2°45.469 263.9 12.4 258 13
2007-03-19 09:05:37 51°11.72 2°45.443 264.9 12.4 257 13.2
2007-03-19 09:05:42 51°11.716 2°45.416 264.2 12.3 258 12.9
2007-03-19 09:05:47 51°11.712 2°45.389 263.7 12.4 258 13.2
2007-03-19 09:05:52 51°11.71 2°45.362 264.5 12.4 259 13.1
2007-03-19 09:05:56 51°11.706 2°45.341 264.9 12.5 257 13
2007-03-19 09:06:02 51°11.703 2°45.308 264.6 12.5 259 13.2
2007-03-19 09:06:07 51°11.699 2°45.282 264.9 12.4 258 13.2
2007-03-19 09:06:12 51°11.695 2°45.255 264.9 12.4 258 13.3
2007-03-19 09:06:17 51°11.692 2°45.228 264.7 12.3 257 13
2007-03-19 09:06:22 51°11.688 2°45.202 264.1 12.4 258 13.3
2007-03-19 09:06:26 51°11.685 2°45.18 264.4 12.4 260 12.9
2007-03-19 09:06:32 51°11.683 2°45.148 266.3 12.3 263 13.3
2007-03-19 09:06:37 51°11.68 2°45.121 267 12.3 261 13.1
2007-03-19 09:06:42 51°11.678 2°45.094 267.8 12.4 263 13.2
2007-03-19 09:06:46 51°11.676 2°45.072 268.3 12.5 262 13.2
2007-03-19 09:06:51 51°11.673 2°45.045 268.5 12.4 262 12.8
2007-03-19 09:06:57 51°11.671 2°45.013 268.5 12.1 263 12.8
2007-03-19 09:07:02 51°11.668 2°44.986 269.3 12.1 260 13.2
2007-03-19 09:07:07 51°11.666 2°44.959 268.5 12.3 264 13.1
2007-03-19 09:07:11 51°11.665 2°44.938 269.5 12.2 266 13
2007-03-19 09:07:16 51°11.663 2°44.911 271.1 12.2 264 12.8
2007-03-19 09:07:22 51°11.663 2°44.879 271.4 12.3 268 13.2
2007-03-19 09:07:27 51°11.661 2°44.852 272.9 12.2 265 12.9
2007-03-19 09:07:32 51°11.661 2°44.825 273 12.2 269 13.3
2007-03-19 09:07:36 51°11.66 2°44.804 273.6 12.2 267 13.1
2007-03-19 09:07:42 51°11.659 2°44.771 274.3 12.3 267 12.9
2007-03-19 09:07:47 51°11.659 2°44.745 274.3 12.1 269 12.9
2007-03-19 09:07:52 51°11.657 2°44.718 275 12.3 265 13.3
2007-03-19 09:07:56 51°11.658 2°44.696 274.3 12.2 269 13.3
2007-03-19 09:08:02 51°11.656 2°44.664 274.3 12.3 266 12.8
2007-03-19 09:08:07 51°11.656 2°44.637 274.1 12.3 270 12.9
2007-03-19 09:08:12 51°11.655 2°44.611 274.3 12 266 12.7
2007-03-19 09:08:16 51°11.654 2°44.589 274.5 12 267 12.9
2007-03-19 09:08:22 51°11.653 2°44.558 273.6 11.8 266 13.1
2007-03-19 09:08:26 51°11.652 2°44.537 274.3 11.7 265 13
2007-03-19 09:08:32 51°11.65 2°44.506 272.9 11.7 266 12.8
2007-03-19 09:08:36 51°11.65 2°44.486 273.2 11.9 267 12.9
2007-03-19 09:08:42 51°11.648 2°44.454 273 12.2 264 12.9
2007-03-19 09:08:47 51°11.648 2°44.427 272.8 11.8 269 12.8
2007-03-19 09:08:52 51°11.646 2°44.402 273.6 11.7 264 12.7
2007-03-19 09:08:57 51°11.645 2°44.375 273.2 11.9 267 12.8
2007-03-19 09:09:02 51°11.644 2°44.349 273.2 11.8 266 12.6
2007-03-19 09:09:06 51°11.643 2°44.329 273.7 11.7 266 12.7
2007-03-19 09:09:11 51°11.642 2°44.302 273.8 11.9 266 12.7
2007-03-19 09:09:16 51°11.641 2°44.277 273.6 11.6 265 12.5
2007-03-19 09:09:22 51°11.64 2°44.246 272.9 11.8 267 12.7
2007-03-19 09:09:27 51°11.639 2°44.22 273 11.6 266 12.5
2007-03-19 09:09:31 51°11.638 2°44.2 273.6 11.7 267 12.6
2007-03-19 09:09:36 51°11.637 2°44.174 273.3 11.8 266 12.5
2007-03-19 09:09:42 51°11.636 2°44.142 273.1 12 266 12.5
2007-03-19 09:09:47 51°11.634 2°44.116 273.5 11.8 267 12.4
2007-03-19 09:09:52 51°11.634 2°44.09 273.6 11.7 268 12.5
2007-03-19 09:09:56 51°11.633 2°44.07 273.5 12 265 12.2
2007-03-19 09:10:02 51°11.632 2°44.037 272.9 12 268 12.2
2007-03-19 09:10:07 51°11.631 2°44.012 273.8 11.7 266 12.1
2007-03-19 09:10:12 51°11.63 2°43.986 273.6 11.7 267 12.1
2007-03-19 09:10:16 51°11.629 2°43.964 272.9 12 266 12
2007-03-19 09:10:22 51°11.628 2°43.932 273.5 12 269 11.9
2007-03-19 09:10:26 51°11.627 2°43.911 275 12 265 11.9
2007-03-19 09:10:32 51°11.626 2°43.88 273.6 12 266 11.8
2007-03-19 09:10:36 51°11.625 2°43.858 272.9 12 267 11.9
2007-03-19 09:10:42 51°11.624 2°43.826 273.1 12.1 268 11.9
2007-03-19 09:10:47 51°11.624 2°43.799 273.5 12.2 269 11.9
2007-03-19 09:10:52 51°11.623 2°43.773 274.1 12 268 11.9
2007-03-19 09:10:57 51°11.622 2°43.746 274.3 12 267 11.9
2007-03-19 09:11:02 51°11.621 2°43.719 273.3 12.2 267 11.7
2007-03-19 09:11:06 51°11.62 2°43.697 273.3 12.4 268 11.8
2007-03-19 09:11:11 51°11.619 2°43.671 274 12.1 268 11.6
2007-03-19 09:11:17 51°11.619 2°43.639 274 12.1 266 11.7
2007-03-19 09:11:22 51°11.618 2°43.612 272.8 12.1 267 11.5
2007-03-19 09:11:26 51°11.617 2°43.591 273.2 12.2 267 11.5
2007-03-19 09:11:31 51°11.616 2°43.564 273.6 12.1 266 11.4
2007-03-19 09:11:37 51°11.615 2°43.532 273.3 12 266 11.6
2007-03-19 09:11:42 51°11.614 2°43.505 273.8 12.1 267 11.5
2007-03-19 09:11:47 51°11.613 2°43.479 272.7 12.1 267 11.2
2007-03-19 09:11:51 51°11.612 2°43.458 273.4 12.1 265 11.2
2007-03-19 09:11:56 51°11.611 2°43.431 273.4 12 268 11.2
2007-03-19 09:12:02 51°11.61 2°43.399 273.5 12.2 266 11.1
2007-03-19 09:12:07 51°11.609 2°43.373 273.4 11.9 268 10.9
2007-03-19 09:12:12 51°11.608 2°43.346 273.7 12 265 11.1
2007-03-19 09:12:16 51°11.607 2°43.325 273.3 11.9 266 10.9
2007-03-19 09:12:22 51°11.605 2°43.294 272.3 11.8 266 10.9
2007-03-19 09:12:27 51°11.604 2°43.267 273.1 12 267 10.9
2007-03-19 09:12:31 51°11.603 2°43.246 272.5 12 265 10.8
2007-03-19 09:12:36 51°11.602 2°43.22 273.6 12.1 265 10.9
2007-03-19 09:12:42 51°11.601 2°43.188 273.4 12.1 266 10.6
2007-03-19 09:12:47 51°11.599 2°43.162 272.8 12.1 266 10.6
2007-03-19 09:12:52 51°11.598 2°43.136 272.9 12 267 10.8
2007-03-19 09:12:56 51°11.597 2°43.115 273.5 12.1 264 11.1
2007-03-19 09:13:02 51°11.595 2°43.083 272.9 12 264 11
2007-03-19 09:13:06 51°11.593 2°43.062 271 12.1 262 10.8
2007-03-19 09:13:11 51°11.591 2°43.035 269.5 12.1 263 11
2007-03-19 09:13:17 51°11.588 2°43.004 268.7 12.1 260 10.8
2007-03-19 09:13:22 51°11.585 2°42.977 267.5 12.2 262 10.9
2007-03-19 09:13:26 51°11.583 2°42.957 267.4 12.1 259 10.7
2007-03-19 09:13:31 51°11.58 2°42.93 266.4 12.2 261 10.8
2007-03-19 09:13:37 51°11.576 2°42.899 266.6 12.1 258 10.9
2007-03-19 09:13:42 51°11.573 2°42.872 266.5 12 260 11
2007-03-19 09:13:47 51°11.57 2°42.846 265.8 12.2 259 11
2007-03-19 09:13:51 51°11.568 2°42.825 266.1 12.2 260 10.9
2007-03-19 09:13:56 51°11.565 2°42.798 266.2 12 260 11
2007-03-19 09:14:02 51°11.561 2°42.767 266.3 12 259 10.6
2007-03-19 09:14:07 51°11.558 2°42.741 266 12.1 260 10.7
2007-03-19 09:14:12 51°11.554 2°42.714 266.3 12.3 257 11
2007-03-19 09:14:16 51°11.552 2°42.693 266.6 12.3 260 11.2
2007-03-19 09:14:22 51°11.548 2°42.662 265.6 12.2 259 10.9
2007-03-19 09:14:27 51°11.544 2°42.636 266.3 12.1 258 11
2007-03-19 09:14:31 51°11.541 2°42.615 265.6 12 257 11.3
2007-03-19 09:14:36 51°11.537 2°42.59 264.7 12.2 253 11.4
2007-03-19 09:14:42 51°11.531 2°42.558 261.8 12.2 254 11.4
2007-03-19 09:14:47 51°11.526 2°42.533 260.6 12.2 252 11.3
2007-03-19 09:14:52 51°11.521 2°42.507 259.2 12.3 253 11.3
2007-03-19 09:14:56 51°11.515 2°42.486 258.3 11.8 249 11.2
2007-03-19 09:15:02 51°11.508 2°42.458 258 11.5 249 10.9
2007-03-19 09:15:07 51°11.502 2°42.433 256.3 12.1 249 -999
2007-03-19 09:15:12 51°11.497 2°42.408 255.2 12 254 11.3
2007-03-19 09:15:17 51°11.491 2°42.384 257.7 11.9 247 10.8
2007-03-19 09:15:22 51°11.485 2°42.36 256.5 11.9 250 10.9
2007-03-19 09:15:27 51°11.478 2°42.335 255.4 12.2 248 11.3
2007-03-19 09:15:32 51°11.472 2°42.31 254.9 12.2 247 11.2
2007-03-19 09:15:37 51°11.465 2°42.286 253 12.2 245 11.4
2007-03-19 09:15:42 51°11.458 2°42.261 252.4 12.3 245 11.6
2007-03-19 09:15:47 51°11.451 2°42.236 251.1 12.6 245 11.6
2007-03-19 09:15:51 51°11.445 2°42.216 250.7 12.5 244 11.4
2007-03-19 09:15:57 51°11.435 2°42.188 250.3 12.1 243 11.9
2007-03-19 09:16:02 51°11.427 2°42.163 249.2 12.5 241 12.1
2007-03-19 09:16:07 51°11.418 2°42.139 247.2 12.6 242 11.6
2007-03-19 09:16:11 51°11.412 2°42.12 246.4 12.4 241 11.4
2007-03-19 09:16:16 51°11.403 2°42.097 246.1 12.4 240 11.4
2007-03-19 09:16:22 51°11.392 2°42.068 245.9 12.6 239 11.7
2007-03-19 09:16:27 51°11.384 2°42.043 245.4 12.7 241 11.9
2007-03-19 09:16:32 51°11.375 2°42.02 246.5 12.6 239 11.8
2007-03-19 09:16:36 51°11.369 2°42 245.4 12.8 240 11.9
2007-03-19 09:16:42 51°11.358 2°41.971 245 12.6 240 12.1
2007-03-19 09:16:47 51°11.349 2°41.948 246 12.6 239 11.9
2007-03-19 09:16:52 51°11.34 2°41.924 244.9 12.6 238 12.2
2007-03-19 09:16:57 51°11.331 2°41.901 246.1 12.3 238 11.3
2007-03-19 09:17:02 51°11.322 2°41.878 243.4 12.1 240 11.3
2007-03-19 09:17:07 51°11.313 2°41.854 245 12.3 239 11.6
2007-03-19 09:17:12 51°11.304 2°41.831 244.4 12.4 239 11.7
2007-03-19 09:17:17 51°11.296 2°41.806 244.8 12.5 241 11.8
2007-03-19 09:17:22 51°11.286 2°41.783 245.2 12.6 237 11.7
2007-03-19 09:17:26 51°11.28 2°41.764 245.3 12.4 240 12
2007-03-19 09:17:32 51°11.269 2°41.736 244.9 12.5 240 12.2
2007-03-19 09:17:36 51°11.262 2°41.717 244.6 12.4 242 12.4
2007-03-19 09:17:42 51°11.252 2°41.688 246 12.5 240 12.6
2007-03-19 09:17:47 51°11.243 2°41.664 245.8 12.5 240 12.4
2007-03-19 09:17:52 51°11.234 2°41.64 245.7 12.4 239 12.8
2007-03-19 09:17:57 51°11.225 2°41.617 245.8 12.5 239 12.6
2007-03-19 09:18:02 51°11.216 2°41.593 244.6 12.4 239 12.4
2007-03-19 09:18:06 51°11.209 2°41.575 245.6 12.5 239 12.5
2007-03-19 09:18:11 51°11.201 2°41.55 244.6 12.5 241 12.3
2007-03-19 09:18:17 51°11.19 2°41.522 245.6 12.6 241 12.4
2007-03-19 09:18:22 51°11.181 2°41.499 245.6 12.2 238 12.3
2007-03-19 09:18:27 51°11.173 2°41.475 245.4 12.2 240 12.3
2007-03-19 09:18:31 51°11.166 2°41.457 245.5 12.3 239 12.6
2007-03-19 09:18:36 51°11.157 2°41.434 244.6 12.3 237 12.7
2007-03-19 09:18:42 51°11.145 2°41.406 243.5 12.3 237 12.7
2007-03-19 09:18:47 51°11.135 2°41.384 243.1 12.7 234 13
2007-03-19 09:18:52 51°11.126 2°41.361 241 12.5 238 12.4
2007-03-19 09:18:56 51°11.119 2°41.342 242 12.3 236 12.5
2007-03-19 09:19:02 51°11.106 2°41.316 242.2 12.4 232 12.8
2007-03-19 09:19:07 51°11.097 2°41.292 240.9 12.5 239 12.8
2007-03-19 09:19:12 51°11.087 2°41.27 240.9 12.4 235 12.2
2007-03-19 09:19:17 51°11.077 2°41.247 240.8 12.6 235 12.4
2007-03-19 09:19:22 51°11.067 2°41.224 240.5 12.6 238 12.9
2007-03-19 09:19:27 51°11.057 2°41.202 242.1 12.6 232 12.9
2007-03-19 09:19:32 51°11.047 2°41.179 239.8 12.4 236 13.4
2007-03-19 09:19:36 51°11.039 2°41.161 241 12.5 232 13
2007-03-19 09:19:42 51°11.027 2°41.133 239.3 12.8 236 13
2007-03-19 09:19:47 51°11.017 2°41.111 240.2 12.6 235 12.8
2007-03-19 09:19:52 51°11.006 2°41.088 240 12.7 234 12.9
2007-03-19 09:19:57 51°10.997 2°41.065 239.3 12.6 237 13.1
2007-03-19 09:20:02 51°10.986 2°41.042 240.3 12.6 234 12.9
2007-03-19 09:20:06 51°10.979 2°41.023 239.4 12.6 237 12.9
2007-03-19 09:20:12 51°10.967 2°40.996 241.3 12.6 235 13.1
2007-03-19 09:20:17 51°10.957 2°40.973 240.3 12.6 237 13.4
2007-03-19 09:20:22 51°10.946 2°40.95 241.3 12.7 233 13
2007-03-19 09:20:27 51°10.936 2°40.927 240.4 12.8 234 12.9
2007-03-19 09:20:31 51°10.928 2°40.909 240.2 12.7 235 12.7
2007-03-19 09:20:37 51°10.917 2°40.882 240 12.5 236 12.9
2007-03-19 09:20:42 51°10.907 2°40.859 240.1 12.5 235 13.2
2007-03-19 09:20:47 51°10.896 2°40.836 240.6 12.6 233 13.3
2007-03-19 09:20:52 51°10.886 2°40.813 240.6 12.8 235 13.6
2007-03-19 09:20:56 51°10.878 2°40.795 240.9 12.8 234 13.4
2007-03-19 09:21:02 51°10.866 2°40.767 239.3 12.6 237 13
2007-03-19 09:21:07 51°10.856 2°40.744 240.5 12.9 233 13.1
2007-03-19 09:21:12 51°10.847 2°40.72 240.3 12.7 237 13.2
2007-03-19 09:21:17 51°10.836 2°40.698 241.9 12.7 234 13.4
2007-03-19 09:21:22 51°10.826 2°40.674 240.7 12.9 235 13.3
2007-03-19 09:21:27 51°10.817 2°40.65 240.6 12.8 238 13.9
2007-03-19 09:21:32 51°10.806 2°40.627 242.2 12.8 235 13.7
2007-03-19 09:21:36 51°10.799 2°40.609 240.6 12.2 238 13.3
2007-03-19 09:21:42 51°10.787 2°40.582 242.1 12.6 233 13.4
2007-03-19 09:21:47 51°10.778 2°40.558 239.6 12.6 240 13.5
2007-03-19 09:21:52 51°10.767 2°40.537 242.1 12.5 233 13.1
2007-03-19 09:21:56 51°10.759 2°40.518 240.5 12.4 235 13.5
2007-03-19 09:22:02 51°10.747 2°40.491 241 12.4 237 13.5
2007-03-19 09:22:07 51°10.737 2°40.469 240.8 12.4 234 13
2007-03-19 09:22:12 51°10.728 2°40.446 240.1 12.3 238 13.2
2007-03-19 09:22:17 51°10.718 2°40.424 241.6 12.6 232 13.9
2007-03-19 09:22:22 51°10.708 2°40.401 240.4 12.6 237 13.9
2007-03-19 09:22:26 51°10.701 2°40.383 241 12.4 236 13.8
2007-03-19 09:22:32 51°10.688 2°40.356 241 12.5 234 14.1
2007-03-19 09:22:37 51°10.679 2°40.333 240.2 12.5 237 14.3
2007-03-19 09:22:42 51°10.669 2°40.31 241.7 12.6 233 14.1
2007-03-19 09:22:47 51°10.661 2°40.286 240.7 12.4 239 14.4
2007-03-19 09:22:51 51°10.651 2°40.269 242.1 12.5 232 13.8
2007-03-19 09:22:57 51°10.64 2°40.241 240.6 12.4 238 14.3
2007-03-19 09:23:02 51°10.63 2°40.218 241.6 12.5 236 14.3
2007-03-19 09:23:07 51°10.62 2°40.196 240.9 12.7 236 14
2007-03-19 09:23:12 51°10.611 2°40.173 240.6 12.4 237 14.1
2007-03-19 09:23:17 51°10.601 2°40.151 241.6 12.5 234 13.5
2007-03-19 09:23:22 51°10.591 2°40.127 240.5 12.8 236 13.8
2007-03-19 09:23:27 51°10.582 2°40.103 241.2 12.6 237 14.2
2007-03-19 09:23:32 51°10.572 2°40.08 242.1 12.6 237 14.4
2007-03-19 09:23:37 51°10.563 2°40.057 241.4 12.4 237 14.6
2007-03-19 09:23:42 51°10.553 2°40.033 242.3 12.6 236 14.7
2007-03-19 09:23:47 51°10.543 2°40.01 242.7 12.8 235 14.7
2007-03-19 09:23:52 51°10.533 2°39.986 241.5 12.9 237 14.5
2007-03-19 09:23:56 51°10.524 2°39.968 241.2 12.4 234 14.3
2007-03-19 09:24:02 51°10.514 2°39.941 240.6 12.2 238 14.3
2007-03-19 09:24:07 51°10.504 2°39.918 242 12.2 236 14.4
2007-03-19 09:24:12 51°10.494 2°39.895 241.6 12.7 236 14.3
2007-03-19 09:24:16 51°10.487 2°39.876 241 12.5 239 14.2
2007-03-19 09:24:22 51°10.475 2°39.849 242.1 12.5 235 14.4
2007-03-19 09:24:27 51°10.465 2°39.826 241 12.6 237 14.6
2007-03-19 09:24:32 51°10.455 2°39.802 241.8 12.8 236 14.8
2007-03-19 09:24:37 51°10.446 2°39.779 242 12.9 237 14.7
2007-03-19 09:24:42 51°10.436 2°39.755 241.5 12.7 238 14.5
2007-03-19 09:24:46 51°10.428 2°39.737 241.4 12.8 234 14.5
2007-03-19 09:24:52 51°10.416 2°39.708 240 12.7 237 14.8
2007-03-19 09:24:57 51°10.406 2°39.686 241.3 12.9 232 14.8
2007-03-19 09:25:02 51°10.397 2°39.662 240.2 12.7 238 14.6
2007-03-19 09:25:07 51°10.386 2°39.639 241.7 12.8 233 14.4
2007-03-19 09:25:11 51°10.378 2°39.62 240.6 12.8 238 14.7
2007-03-19 09:25:17 51°10.366 2°39.593 241.6 12.8 232 14.7
2007-03-19 09:25:22 51°10.357 2°39.568 240.9 12.7 237 15
2007-03-19 09:25:27 51°10.347 2°39.545 241.4 12.8 237 14.6
2007-03-19 09:25:32 51°10.337 2°39.522 241.4 12.8 236 14.9
2007-03-19 09:25:36 51°10.329 2°39.503 240.4 12.5 237 14.6
2007-03-19 09:25:42 51°10.317 2°39.477 241.1 12.5 234 14.5
2007-03-19 09:25:47 51°10.307 2°39.454 241.1 12.6 234 14.9
2007-03-19 09:25:52 51°10.297 2°39.431 240.9 12.6 235 14.8
2007-03-19 09:25:56 51°10.289 2°39.413 239.9 12.5 238 14.5
2007-03-19 09:26:02 51°10.278 2°39.385 240.2 12.6 235 14.7
2007-03-19 09:26:07 51°10.268 2°39.362 241.4 12.5 236 15.2
2007-03-19 09:26:12 51°10.258 2°39.34 241.3 12.4 235 14.7
2007-03-19 09:26:17 51°10.249 2°39.316 241 12.5 237 14.9
2007-03-19 09:26:22 51°10.239 2°39.293 241.4 12.7 236 15
2007-03-19 09:26:27 51°10.23 2°39.27 241.4 12.4 237 15.2
2007-03-19 09:26:32 51°10.219 2°39.248 241.5 12.7 234 15.3
2007-03-19 09:26:36 51°10.212 2°39.228 240.9 12.7 238 15.2
2007-03-19 09:26:42 51°10.2 2°39.2 241.8 12.7 236 15.2
2007-03-19 09:26:47 51°10.19 2°39.177 241.6 12.6 237 15
2007-03-19 09:26:52 51°10.181 2°39.154 241.6 12.6 237 15.2
2007-03-19 09:26:57 51°10.171 2°39.13 242.3 12.7 236 15.3
2007-03-19 09:27:02 51°10.161 2°39.107 241.4 12.7 236 15.3
2007-03-19 09:27:06 51°10.153 2°39.088 241.6 12.7 238 15.4
2007-03-19 09:27:11 51°10.144 2°39.065 242.1 12.8 234 15.1
2007-03-19 09:27:17 51°10.133 2°39.036 240.9 12.8 239 15.3
2007-03-19 09:27:22 51°10.122 2°39.012 242.3 12.8 236 15.1
2007-03-19 09:27:27 51°10.113 2°38.989 241.6 12.7 238 15.1
2007-03-19 09:27:31 51°10.105 2°38.97 241.9 12.7 236 15.1
2007-03-19 09:27:37 51°10.094 2°38.942 241.4 12.7 237 15.1
2007-03-19 09:27:42 51°10.083 2°38.919 241.8 12.7 234 15.2
2007-03-19 09:27:47 51°10.073 2°38.896 241 12.8 237 15.3
2007-03-19 09:27:52 51°10.063 2°38.873 240.9 12.5 234 14.7
2007-03-19 09:27:56 51°10.055 2°38.855 240.1 12.7 236 14.6
2007-03-19 09:28:02 51°10.043 2°38.828 239.9 12.7 234 14.7
2007-03-19 09:28:07 51°10.032 2°38.806 239.5 12.6 233 15.1
2007-03-19 09:28:12 51°10.023 2°38.783 239.1 12.5 234 15.5
2007-03-19 09:28:17 51°10.012 2°38.761 239.2 12.7 233 15.1
2007-03-19 09:28:22 51°10.003 2°38.738 238 12.4 235 14.5
2007-03-19 09:28:27 51°9.992 2°38.716 241 12.4 234 15.1
2007-03-19 09:28:32 51°9.983 2°38.694 240.3 12.2 235 14.8
2007-03-19 09:28:37 51°9.972 2°38.672 239.1 12.3 233 14.5
2007-03-19 09:28:42 51°9.962 2°38.65 238.9 12.3 234 14.7
2007-03-19 09:28:47 51°9.952 2°38.627 239.5 12.5 236 15.1
2007-03-19 09:28:52 51°9.942 2°38.604 239.9 12.5 235 15.2
2007-03-19 09:28:57 51°9.932 2°38.581 239.9 12.7 235 15.1
2007-03-19 09:29:02 51°9.922 2°38.558 239 12.7 236 15.1
2007-03-19 09:29:07 51°9.912 2°38.535 239.5 12.9 235 14.8
2007-03-19 09:29:12 51°9.902 2°38.512 238.7 12.9 235 14.9
2007-03-19 09:29:17 51°9.892 2°38.488 239 12.7 237 15.1
2007-03-19 09:29:22 51°9.881 2°38.466 240.2 12.6 232 14.9
2007-03-19 09:29:26 51°9.873 2°38.448 238.8 12.8 235 15.2
2007-03-19 09:29:32 51°9.861 2°38.421 238.3 12.6 235 14.8
2007-03-19 09:29:37 51°9.851 2°38.398 238.5 12.5 235 14.4
2007-03-19 09:29:42 51°9.84 2°38.375 239 12.7 234 14.4
2007-03-19 09:29:47 51°9.831 2°38.352 238.9 12.5 237 14.6
2007-03-19 09:29:51 51°9.822 2°38.335 240.3 12.6 232 14.5
2007-03-19 09:29:56 51°9.811 2°38.312 238.7 12.6 235 13.9
2007-03-19 09:30:02 51°9.8 2°38.285 240.1 12.4 235 14.4
2007-03-19 09:30:07 51°9.789 2°38.263 239.9 12.3 233 14.3
2007-03-19 09:30:12 51°9.78 2°38.241 238.8 12.6 235 14.5
2007-03-19 09:30:16 51°9.771 2°38.223 239.1 12.6 235 14.5
2007-03-19 09:30:22 51°9.759 2°38.196 239.4 12.4 234 14.4
2007-03-19 09:30:27 51°9.749 2°38.173 239.1 12.5 234 14.5
2007-03-19 09:30:32 51°9.739 2°38.15 239.1 12.7 235 14.5
2007-03-19 09:30:37 51°9.729 2°38.128 240 12.5 235 14.4
2007-03-19 09:30:42 51°9.718 2°38.105 240.5 12.8 232 14.2
2007-03-19 09:30:47 51°9.708 2°38.082 237.6 12.6 235 14.1
2007-03-19 09:30:52 51°9.696 2°38.061 238.6 12.5 230 14
2007-03-19 09:30:56 51°9.688 2°38.043 236.6 12.7 233 14.1
2007-03-19 09:31:02 51°9.674 2°38.017 236 13 230 14
2007-03-19 09:31:07 51°9.663 2°37.996 235.1 12.8 230 13.9
2007-03-19 09:31:12 51°9.651 2°37.975 234.2 12.5 226 14
2007-03-19 09:31:17 51°9.639 2°37.955 232.4 12.8 228 14
2007-03-19 09:31:22 51°9.627 2°37.934 230.6 12.9 226 13.9
2007-03-19 09:31:26 51°9.617 2°37.917 230.7 12.9 229 13.7
2007-03-19 09:31:32 51°9.602 2°37.893 230.5 12.8 223 13.8
2007-03-19 09:31:37 51°9.59 2°37.871 229.3 13 229 13.7
2007-03-19 09:31:42 51°9.577 2°37.853 229.9 12.7 223 13.6
2007-03-19 09:31:47 51°9.566 2°37.831 228.9 12.6 228 13.8
2007-03-19 09:31:51 51°9.555 2°37.815 230.7 13.2 223 13.8
2007-03-19 09:31:57 51°9.541 2°37.79 229.6 12.7 229 13.3
2007-03-19 09:32:02 51°9.529 2°37.77 231.5 12.4 226 13.6
2007-03-19 09:32:07 51°9.517 2°37.749 231.2 13 228 13.3
2007-03-19 09:32:12 51°9.505 2°37.727 229.5 12.8 229 13
2007-03-19 09:32:17 51°9.494 2°37.707 232.4 12.7 228 12.9
2007-03-19 09:32:22 51°9.482 2°37.686 231.8 12.8 227 13.1
2007-03-19 09:32:27 51°9.47 2°37.664 231.3 13 228 13.1
2007-03-19 09:32:32 51°9.458 2°37.643 232 12.7 230 12.8
2007-03-19 09:32:37 51°9.446 2°37.624 232.2 12.6 225 12.7
2007-03-19 09:32:42 51°9.434 2°37.603 229.8 12.6 229 12.6
2007-03-19 09:32:47 51°9.423 2°37.582 230.8 12.2 228 12.6
2007-03-19 09:32:52 51°9.412 2°37.563 232.6 11.4 230 12.6
2007-03-19 09:32:56 51°9.404 2°37.55 232.5 11.2 224 12.3
2007-03-19 09:33:02 51°9.391 2°37.528 231.1 11.2 229 12.3
2007-03-19 09:33:07 51°9.381 2°37.511 232.9 10.5 228 12
2007-03-19 09:33:12 51°9.371 2°37.494 232.3 10.4 228 12
2007-03-19 09:33:17 51°9.362 2°37.478 231.6 10 227 11.9
2007-03-19 09:33:22 51°9.354 2°37.462 233.4 9.2 231 12
2007-03-19 09:33:26 51°9.347 2°37.45 235.1 9 228 12.1
2007-03-19 09:33:32 51°9.338 2°37.432 234.9 8.5 232 12.4
2007-03-19 09:33:37 51°9.331 2°37.419 236.8 8.1 231 12.5
2007-03-19 09:33:42 51°9.324 2°37.406 236.1 7.9 229 12.6
2007-03-19 09:33:46 51°9.318 2°37.396 235.8 7.4 228 12.5
2007-03-19 09:33:52 51°9.31 2°37.382 237 7.2 226 12.6
2007-03-19 09:33:57 51°9.303 2°37.371 235.8 6.9 225 12.7
2007-03-19 09:34:02 51°9.297 2°37.36 235.9 6.8 227 12.5
2007-03-19 09:34:07 51°9.291 2°37.349 235.5 6.5 228 12
2007-03-19 09:34:11 51°9.286 2°37.341 235 6.4 229 11.9
2007-03-19 09:34:17 51°9.279 2°37.328 235.1 6.3 229 12
2007-03-19 09:34:22 51°9.274 2°37.318 235.2 6.1 228 12
2007-03-19 09:34:27 51°9.27 2°37.308 237.5 5.7 236 12.3
2007-03-19 09:34:32 51°9.265 2°37.298 241.2 5.5 233 12.4
2007-03-19 09:34:37 51°9.262 2°37.288 245 5.2 239 12.4
2007-03-19 09:34:42 51°9.258 2°37.28 250.2 4.7 235 12.5
2007-03-19 09:34:47 51°9.256 2°37.271 252.3 4.4 244 12.4
2007-03-19 09:34:52 51°9.252 2°37.264 255 4.2 237 12.3
2007-03-19 09:34:56 51°9.251 2°37.258 257.2 3.9 246 12.3
2007-03-19 09:35:02 51°9.248 2°37.249 259.2 3.9 240 12.2
2007-03-19 09:35:07 51°9.246 2°37.242 261.5 3.5 249 12.2
2007-03-19 09:35:12 51°9.244 2°37.235 264.2 3.7 246 12
2007-03-19 09:35:16 51°9.243 2°37.228 267.9 3.7 253 11.9
2007-03-19 09:35:22 51°9.24 2°37.22 271.1 3.6 250 12
2007-03-19 09:35:27 51°9.239 2°37.213 274.2 3.1 254 12
2007-03-19 09:35:32 51°9.238 2°37.206 276.7 3.2 255 12.1
2007-03-19 09:35:37 51°9.237 2°37.2 278.8 3.1 256 12.2
2007-03-19 09:35:42 51°9.236 2°37.193 282.1 2.9 258 12.3
2007-03-19 09:35:46 51°9.236 2°37.188 285.7 3 263 12.4
2007-03-19 09:35:52 51°9.236 2°37.18 288.7 2.9 264 12.4
2007-03-19 09:35:57 51°9.236 2°37.174 291.4 2.8 268 12.5
2007-03-19 09:36:02 51°9.235 2°37.168 295.4 2.7 265 12.4
2007-03-19 09:36:07 51°9.235 2°37.163 298.9 2.5 265 12.7
2007-03-19 09:36:12 51°9.235 2°37.158 301 2.2 264 12.6
2007-03-19 09:36:17 51°9.234 2°37.153 302.1 2.1 258 12.5
2007-03-19 09:36:22 51°9.234 2°37.149 303 1.8 259 12.5
2007-03-19 09:36:27 51°9.233 2°37.145 303.2 2 249 12.5
2007-03-19 09:36:32 51°9.233 2°37.143 303 1.3 261 12.5
2007-03-19 09:36:37 51°9.231 2°37.139 301.9 1.9 237 12.3
2007-03-19 09:36:42 51°9.231 2°37.137 302.7 1.2 247 12.4
2007-03-19 09:36:47 51°9.229 2°37.134 301.4 1.7 229 12.4
2007-03-19 09:36:52 51°9.228 2°37.131 301.2 1.1 236 12.5
2007-03-19 09:36:57 51°9.227 2°37.129 300.6 1.6 228 12.4
2007-03-19 09:37:02 51°9.225 2°37.127 300.2 1.2 220 12.3
2007-03-19 09:37:07 51°9.224 2°37.125 299.1 1.4 211 12.3
2007-03-19 09:37:12 51°9.222 2°37.124 297.3 1.3 206 12.2
2007-03-19 09:37:16 51°9.221 2°37.122 295.7 1.5 210 12.1
2007-03-19 09:37:22 51°9.218 2°37.121 292.5 1.6 205 12
2007-03-19 09:37:27 51°9.217 2°37.12 290.1 1.3 203 12
2007-03-19 09:37:32 51°9.214 2°37.12 286.9 1.6 195 12
2007-03-19 09:37:37 51°9.213 2°37.119 283.8 1.3 190 12.1
2007-03-19 09:37:42 51°9.21 2°37.119 280.2 1.6 181 12.1
2007-03-19 09:37:47 51°9.208 2°37.119 278 1.4 181 12.2
2007-03-19 09:37:52 51°9.206 2°37.119 274.7 1.4 181 12.2
2007-03-19 09:37:57 51°9.204 2°37.119 271.8 1.5 184 12
2007-03-19 09:38:02 51°9.203 2°37.119 268.5 1 185 12.1
2007-03-19 09:38:06 51°9.201 2°37.119 265.5 1.6 174 12
2007-03-19 09:38:12 51°9.199 2°37.12 262.4 1 173 12.1
2007-03-19 09:38:17 51°9.197 2°37.12 259.8 1.5 169 12
2007-03-19 09:38:22 51°9.195 2°37.12 256.4 0.9 187 12
2007-03-19 09:38:27 51°9.193 2°37.12 253.3 1.4 177 11.8
2007-03-19 09:38:32 51°9.192 2°37.121 249.5 1.3 177 11.6
2007-03-19 09:38:37 51°9.19 2°37.121 244.7 1.3 166 11.5
2007-03-19 09:38:42 51°9.189 2°37.122 240.9 0.9 170 11.4
2007-03-19 09:38:47 51°9.187 2°37.122 238.5 1.1 166 11.5
2007-03-19 09:38:52 51°9.186 2°37.122 237 0.9 180 11.4
2007-03-19 09:38:57 51°9.184 2°37.123 233.6 1.1 170 11.4
2007-03-19 09:39:02 51°9.183 2°37.123 230.9 1 167 11.6
2007-03-19 09:39:07 51°9.182 2°37.123 228.2 0.9 182 11.7
2007-03-19 09:39:11 51°9.181 2°37.123 226.3 1.1 178 11.8
2007-03-19 09:39:16 51°9.179 2°37.123 224.5 0.9 202 11.8
2007-03-19 09:39:22 51°9.177 2°37.123 223.5 0.9 189 11.8
2007-03-19 09:39:27 51°9.175 2°37.123 222 1.1 192 11.7
2007-03-19 09:39:32 51°9.174 2°37.123 219.9 1 179 11.6
2007-03-19 09:39:36 51°9.173 2°37.123 219.5 1.2 184 11.7
2007-03-19 09:39:42 51°9.171 2°37.122 218.4 1.1 192 11.8
2007-03-19 09:39:47 51°9.169 2°37.123 217.6 1.2 180 11.8
2007-03-19 09:39:52 51°9.168 2°37.122 216.3 1.3 183 11.9
2007-03-19 09:39:57 51°9.166 2°37.122 215.6 1.1 189 11.8
2007-03-19 09:40:02 51°9.164 2°37.122 215.7 1.2 177 11.8
2007-03-19 09:40:06 51°9.163 2°37.122 214.8 1.1 187 11.8
2007-03-19 09:40:12 51°9.161 2°37.122 214.1 1.3 166 11.9
2007-03-19 09:40:17 51°9.159 2°37.121 213.3 1.4 185 12
2007-03-19 09:40:22 51°9.158 2°37.121 213 1.2 193 11.7
2007-03-19 09:40:27 51°9.156 2°37.121 212.2 1.2 188 11.4
2007-03-19 09:40:32 51°9.155 2°37.121 211.7 1.1 191 11.3
2007-03-19 09:40:37 51°9.153 2°37.121 213.3 1.2 191 11.2
2007-03-19 09:40:42 51°9.151 2°37.121 212.6 1.2 181 11.3
2007-03-19 09:40:47 51°9.15 2°37.121 212.6 1.4 181 11.4
2007-03-19 09:40:52 51°9.148 2°37.12 212.5 1.3 177 11.6
2007-03-19 09:40:57 51°9.146 2°37.12 213.3 1.3 181 11.5
2007-03-19 09:41:02 51°9.145 2°37.12 213.9 1.2 192 11.2
2007-03-19 09:41:07 51°9.143 2°37.12 215 1.2 188 11.1
2007-03-19 09:41:11 51°9.142 2°37.12 214.4 1.1 195 11.1
2007-03-19 09:41:16 51°9.14 2°37.12 214.4 1.3 180 11.2
2007-03-19 09:41:22 51°9.138 2°37.12 214 1.2 185 11.2
2007-03-19 09:41:27 51°9.136 2°37.12 214.4 1.3 175 11.2
2007-03-19 09:41:32 51°9.135 2°37.119 214.5 1.3 185 11.1
2007-03-19 09:41:36 51°9.133 2°37.118 215.4 1.3 195 11.1
2007-03-19 09:41:42 51°9.131 2°37.118 215.6 1.3 178 11.1
2007-03-19 09:41:47 51°9.129 2°37.118 214.9 1.2 185 11.2
2007-03-19 09:41:52 51°9.127 2°37.118 215.6 1.4 180 11.3
2007-03-19 09:41:57 51°9.125 2°37.117 215.7 1.3 189 11.4
2007-03-19 09:42:02 51°9.124 2°37.116 217 1.3 195 11.4
2007-03-19 09:42:07 51°9.122 2°37.116 217.7 1.2 191 11.3
2007-03-19 09:42:12 51°9.12 2°37.116 217.9 1.4 188 11.3
2007-03-19 09:42:17 51°9.118 2°37.116 217.9 1.3 180 11.5
2007-03-19 09:42:22 51°9.116 2°37.116 218.1 1.8 165 11.5
2007-03-19 09:42:27 51°9.114 2°37.114 218.5 1.2 201 11.4
2007-03-19 09:42:32 51°9.112 2°37.115 220.2 1.4 180 11.1
2007-03-19 09:42:37 51°9.111 2°37.114 220.4 1.2 203 11
2007-03-19 09:42:42 51°9.109 2°37.114 221.7 1.1 179 10.9
2007-03-19 09:42:47 51°9.107 2°37.114 222 1.4 175 11
2007-03-19 09:42:52 51°9.105 2°37.113 223 1.1 192 11
2007-03-19 09:42:57 51°9.104 2°37.112 224.9 1.2 188 10.8
2007-03-19 09:43:02 51°9.102 2°37.112 223.8 1.1 193 10.6
2007-03-19 09:43:07 51°9.1 2°37.113 224.4 1.5 169 10.8
2007-03-19 09:43:11 51°9.099 2°37.112 224.2 1.3 175 11.1